^^
Saratoga-Weather Station Historical Data
Daily Summary for March 16, 2021 Units:  English    Metric   Both
Daily Weekly Monthly Yearly Custom
  High: Low: Average:
Temperature: 38.7 °F 35.2 °F 37 °F
Dew Point: 37.2 °F 34.2 °F 35.8 °F
Humidity: 96% 94% 95%
Wind Speed: 2mph 0mph 0mph
Wind Gust: 3mph - -
Wind- - ENE
Pressure: 30.3 in 30.2 in -
Precipitation: 0 in    
Historical Graphs
 
 
Tabular Data for March 16, 2021
Time Temperature Dew Point Pressure Wind Wind Speed Wind Gust Humidity Rainfall Rate (Hourly) solar
00:04 38.7 °F 37 °F 30.3 in Calm     94% 0 in 0 W/m2
00:09 38.7 °F 37 °F 30.3 in Calm     94% 0 in 0 W/m2
00:14 38.5 °F 36.9 °F 30.3 in Calm     94% 0 in 0 W/m2
00:19 38.5 °F 36.9 °F 30.3 in Calm     94% 0 in 0 W/m2
00:24 38.5 °F 36.9 °F 30.3 in Calm     94% 0 in 0 W/m2
00:29 38.5 °F 36.9 °F 30.3 in Calm     94% 0 in 0 W/m2
00:34 38.3 °F 36.7 °F 30.3 in Calm     94% 0 in 0 W/m2
00:39 38.1 °F 36.5 °F 30.3 in Calm     94% 0 in 0 W/m2
00:44 38.1 °F 36.5 °F 30.3 in Calm     94% 0 in 0 W/m2
00:49 38.1 °F 36.5 °F 30.3 in Calm     94% 0 in 0 W/m2
00:54 38.1 °F 36.9 °F 30.3 in Calm   1 mph 95% 0 in 0 W/m2
00:59 38.3 °F 37 °F 30.3 in Calm     95% 0 in 0 W/m2
01:04 38.3 °F 37 °F 30.3 in Calm   1 mph 95% 0 in 0 W/m2
01:09 38.5 °F 37.2 °F 30.3 in Calm     95% 0 in 0 W/m2
01:14 38.5 °F 37.2 °F 30.3 in Calm     95% 0 in 0 W/m2
01:19 38.5 °F 37.2 °F 30.3 in Calm     95% 0 in 0 W/m2
01:24 38.5 °F 37.2 °F 30.3 in Calm     95% 0 in 0 W/m2
01:29 38.3 °F 37 °F 30.3 in Calm     95% 0 in 0 W/m2
01:34 38.3 °F 37 °F 30.3 in Calm     95% 0 in 0 W/m2
01:39 38.3 °F 37 °F 30.3 in Calm     95% 0 in 0 W/m2
01:44 38.3 °F 37 °F 30.3 in Calm     95% 0 in 0 W/m2
01:49 38.3 °F 37 °F 30.3 in Calm     95% 0 in 0 W/m2
01:54 38.1 °F 36.9 °F 30.3 in Calm     95% 0 in 0 W/m2
01:59 38.1 °F 36.9 °F 30.3 in Calm     95% 0 in 0 W/m2
02:04 38.1 °F 36.9 °F 30.3 in Calm     95% 0 in 0 W/m2
02:09 38.1 °F 36.9 °F 30.2 in Calm     95% 0 in 0 W/m2
02:14 38.1 °F 36.9 °F 30.2 in Calm     95% 0 in 0 W/m2
02:19 38.1 °F 36.9 °F 30.2 in Calm     95% 0 in 0 W/m2
02:24 38.1 °F 36.9 °F 30.2 in Calm     95% 0 in 0 W/m2
02:29 37.9 °F 36.7 °F 30.2 in Calm     95% 0 in 0 W/m2
02:34 37.9 °F 36.7 °F 30.2 in Calm     95% 0 in 0 W/m2
02:39 37.8 °F 36.5 °F 30.2 in Calm   1 mph 95% 0 in 0 W/m2
02:44 37.6 °F 36.3 °F 30.2 in Calm     95% 0 in 0 W/m2
02:49 37.2 °F 36 °F 30.2 in Calm   1 mph 95% 0 in 0 W/m2
02:54 37.2 °F 36 °F 30.2 in Calm     95% 0 in 0 W/m2
02:59 37 °F 35.8 °F 30.2 in Calm     95% 0 in 0 W/m2
03:04 37 °F 35.8 °F 30.2 in Calm     95% 0 in 0 W/m2
03:09 37 °F 35.8 °F 30.2 in Calm   1 mph 95% 0 in 0 W/m2
03:14 37 °F 35.8 °F 30.2 in Calm     95% 0 in 0 W/m2
03:19 37 °F 35.8 °F 30.2 in Calm   1 mph 95% 0 in 0 W/m2
03:24 37 °F 36 °F 30.2 in Calm     96% 0 in 0 W/m2
03:29 37.2 °F 36.1 °F 30.2 in Calm     96% 0 in 0 W/m2
03:34 37.2 °F 36.1 °F 30.2 in Calm     96% 0 in 0 W/m2
03:39 37.2 °F 36.1 °F 30.2 in Calm     96% 0 in 0 W/m2
03:44 37 °F 35.8 °F 30.2 in Calm     95% 0 in 0 W/m2
03:49 37 °F 35.8 °F 30.2 in Calm     95% 0 in 0 W/m2
03:54 36.9 °F 35.6 °F 30.2 in Calm     95% 0 in 0 W/m2
03:59 36.9 °F 35.6 °F 30.2 in Calm     95% 0 in 0 W/m2
04:04 36.9 °F 35.6 °F 30.2 in Calm     95% 0 in 0 W/m2
04:09 36.9 °F 35.6 °F 30.2 in Calm     95% 0 in 0 W/m2
04:14 36.9 °F 35.6 °F 30.2 in Calm     95% 0 in 0 W/m2
04:19 36.9 °F 35.6 °F 30.2 in Calm     95% 0 in 0 W/m2
04:24 36.9 °F 35.6 °F 30.2 in NE 1 mph 1 mph 95% 0 in 0 W/m2
04:29 36.9 °F 35.6 °F 30.2 in Calm     95% 0 in 0 W/m2
04:34 36.9 °F 35.8 °F 30.2 in East 2 mph 3 mph 96% 0 in 0 W/m2
04:39 37 °F 36 °F 30.2 in Calm   1 mph 96% 0 in 0 W/m2
04:44 37 °F 36 °F 30.2 in Calm     96% 0 in 0 W/m2
04:49 37 °F 36 °F 30.2 in Calm   1 mph 96% 0 in 0 W/m2
04:54 36.9 °F 35.8 °F 30.2 in Calm     96% 0 in 0 W/m2
04:59 36.9 °F 35.8 °F 30.2 in Calm     96% 0 in 0 W/m2
05:04 36.9 °F 35.8 °F 30.2 in Calm     96% 0 in 0 W/m2
05:09 36.9 °F 35.8 °F 30.2 in Calm     96% 0 in 0 W/m2
05:14 36.7 °F 35.6 °F 30.2 in Calm     96% 0 in 0 W/m2
05:19 36.7 °F 35.6 °F 30.2 in Calm   2 mph 96% 0 in 0 W/m2
05:24 36.5 °F 35.4 °F 30.2 in Calm     96% 0 in 0 W/m2
05:29 36.3 °F 35.1 °F 30.2 in Calm   1 mph 95% 0 in 0 W/m2
05:34 36.1 °F 34.9 °F 30.2 in Calm     95% 0 in 0 W/m2
05:39 36.1 °F 34.9 °F 30.2 in Calm     95% 0 in 0 W/m2
05:44 36 °F 34.9 °F 30.2 in Calm     96% 0 in 0 W/m2
05:49 36 °F 34.9 °F 30.2 in Calm     96% 0 in 0 W/m2
05:54 36 °F 34.7 °F 30.2 in Calm     95% 0 in 0 W/m2
05:59 36 °F 34.9 °F 30.2 in Calm     96% 0 in 0 W/m2
06:04 36 °F 34.9 °F 30.2 in Calm     96% 0 in 0 W/m2
06:09 36 °F 34.9 °F 30.2 in Calm     96% 0 in 0 W/m2
06:14 36 °F 34.9 °F 30.2 in Calm     96% 0 in 0 W/m2
06:19 36 °F 34.9 °F 30.2 in Calm     96% 0 in 0 W/m2
06:24 36 °F 34.9 °F 30.2 in Calm     96% 0 in 0 W/m2
06:29 36 °F 34.9 °F 30.2 in Calm     96% 0 in 0 W/m2
06:34 36 °F 34.9 °F 30.2 in Calm     96% 0 in 0 W/m2
06:39 36 °F 34.9 °F 30.2 in Calm     96% 0 in 0 W/m2
06:44 36 °F 34.9 °F 30.2 in Calm     96% 0 in 0 W/m2
06:49 36 °F 34.9 °F 30.2 in Calm     96% 0 in 0 W/m2
06:54 36 °F 34.9 °F 30.2 in Calm     96% 0 in 0 W/m2
06:59 36 °F 34.9 °F 30.2 in Calm     96% 0 in 0 W/m2
07:04 35.8 °F 34.7 °F 30.2 in Calm     96% 0 in 0 W/m2
07:09 35.8 °F 34.7 °F 30.2 in Calm     96% 0 in 0 W/m2
07:14 35.6 °F 34.5 °F 30.2 in Calm     96% 0 in 0 W/m2
07:19 35.6 °F 34.5 °F 30.2 in Calm     96% 0 in 0 W/m2
07:24 35.4 °F 34.3 °F 30.2 in Calm     96% 0 in 0 W/m2
07:29 35.4 °F 34.3 °F 30.2 in Calm     96% 0 in 0 W/m2
07:34 35.2 °F 34.2 °F 30.2 in Calm     96% 0 in 0 W/m2
07:39 35.2 °F 34.2 °F 30.2 in Calm     96% 0 in 0 W/m2
07:44 35.2 °F 34.2 °F 30.2 in Calm   1 mph 96% 0 in 0 W/m2
07:49 35.2 °F 34.2 °F 30.2 in Calm   1 mph 96% 0 in 5 W/m2
07:54 35.2 °F 34.2 °F 30.2 in Calm     96% 0 in 9 W/m2
07:59 35.2 °F 34.2 °F 30.2 in Calm   1 mph 96% 0 in 12 W/m2
08:05 35.2 °F 34.2 °F 30.2 in Calm     96% 0 in 16 W/m2
Juneau County Weather
Compliments of Weather Underground - 4 mb